sensor_id;sensor_type;location;lat;lon;timestamp;P1;durP1;ratioP1;P2;durP2;ratioP2
28605;SDS011;46498;49.968;7.754;2022-12-07T00:00:17;20.58;;;9.20;;
28605;SDS011;46498;49.968;7.754;2022-12-07T00:05:19;26.65;;;12.23;;
28605;SDS011;46498;49.968;7.754;2022-12-07T00:10:19;17.52;;;6.28;;
28605;SDS011;46498;49.968;7.754;2022-12-07T00:15:20;17.17;;;7.03;;
28605;SDS011;46498;49.968;7.754;2022-12-07T00:20:21;20.70;;;8.93;;
28605;SDS011;46498;49.968;7.754;2022-12-07T00:25:22;24.30;;;10.18;;
28605;SDS011;46498;49.968;7.754;2022-12-07T00:30:23;26.85;;;11.52;;
28605;SDS011;46498;49.968;7.754;2022-12-07T00:35:24;24.35;;;10.82;;
28605;SDS011;46498;49.968;7.754;2022-12-07T00:40:24;26.50;;;11.23;;
28605;SDS011;46498;49.968;7.754;2022-12-07T00:45:25;24.37;;;9.00;;
28605;SDS011;46498;49.968;7.754;2022-12-07T00:50:26;20.58;;;10.23;;
28605;SDS011;46498;49.968;7.754;2022-12-07T00:55:27;19.37;;;8.10;;
28605;SDS011;46498;49.968;7.754;2022-12-07T01:00:28;14.70;;;6.62;;
28605;SDS011;46498;49.968;7.754;2022-12-07T01:05:28;12.90;;;5.87;;
28605;SDS011;46498;49.968;7.754;2022-12-07T01:10:29;11.40;;;5.35;;
28605;SDS011;46498;49.968;7.754;2022-12-07T01:15:32;9.50;;;4.47;;
28605;SDS011;46498;49.968;7.754;2022-12-07T01:20:32;9.20;;;3.95;;
28605;SDS011;46498;49.968;7.754;2022-12-07T01:25:33;8.35;;;3.62;;
28605;SDS011;46498;49.968;7.754;2022-12-07T01:30:34;7.87;;;3.53;;
28605;SDS011;46498;49.968;7.754;2022-12-07T01:35:35;8.13;;;4.03;;
28605;SDS011;46498;49.968;7.754;2022-12-07T01:40:36;12.80;;;6.37;;
28605;SDS011;46498;49.968;7.754;2022-12-07T01:45:38;16.87;;;7.45;;
28605;SDS011;46498;49.968;7.754;2022-12-07T01:50:43;21.00;;;8.73;;
28605;SDS011;46498;49.968;7.754;2022-12-07T01:55:49;22.17;;;9.80;;
28605;SDS011;46498;49.968;7.754;2022-12-07T02:00:51;22.50;;;10.10;;
28605;SDS011;46498;49.968;7.754;2022-12-07T02:05:52;28.80;;;11.45;;
28605;SDS011;46498;49.968;7.754;2022-12-07T02:10:53;29.08;;;11.27;;
28605;SDS011;46498;49.968;7.754;2022-12-07T02:31:56;24.90;;;11.05;;
28605;SDS011;46498;49.968;7.754;2022-12-07T02:46:01;30.27;;;12.02;;
28605;SDS011;46498;49.968;7.754;2022-12-07T02:51:06;29.40;;;13.13;;
28605;SDS011;46498;49.968;7.754;2022-12-07T02:56:16;26.98;;;12.55;;
28605;SDS011;46498;49.968;7.754;2022-12-07T03:01:46;27.80;;;12.27;;
28605;SDS011;46498;49.968;7.754;2022-12-07T03:07:21;27.20;;;13.15;;
28605;SDS011;46498;49.968;7.754;2022-12-07T03:19:57;30.48;;;13.85;;
28605;SDS011;46498;49.968;7.754;2022-12-07T03:25:06;28.20;;;12.57;;
28605;SDS011;46498;49.968;7.754;2022-12-07T03:30:15;28.05;;;12.80;;
28605;SDS011;46498;49.968;7.754;2022-12-07T03:35:27;29.10;;;12.88;;
28605;SDS011;46498;49.968;7.754;2022-12-07T03:40:44;30.12;;;13.95;;
28605;SDS011;46498;49.968;7.754;2022-12-07T03:46:09;30.75;;;14.07;;
28605;SDS011;46498;49.968;7.754;2022-12-07T03:51:45;34.38;;;15.85;;
28605;SDS011;46498;49.968;7.754;2022-12-07T03:56:54;29.00;;;13.55;;
28605;SDS011;46498;49.968;7.754;2022-12-07T04:01:57;36.10;;;16.40;;
28605;SDS011;46498;49.968;7.754;2022-12-07T04:07:02;35.15;;;15.57;;
28605;SDS011;46498;49.968;7.754;2022-12-07T04:12:03;30.62;;;14.30;;
28605;SDS011;46498;49.968;7.754;2022-12-07T04:17:04;31.17;;;14.55;;
28605;SDS011;46498;49.968;7.754;2022-12-07T04:22:05;32.85;;;14.98;;
28605;SDS011;46498;49.968;7.754;2022-12-07T04:27:07;35.78;;;15.90;;
28605;SDS011;46498;49.968;7.754;2022-12-07T04:32:08;37.40;;;15.15;;
28605;SDS011;46498;49.968;7.754;2022-12-07T04:37:08;29.80;;;13.98;;
28605;SDS011;46498;49.968;7.754;2022-12-07T04:42:09;31.65;;;14.57;;
28605;SDS011;46498;49.968;7.754;2022-12-07T04:47:11;35.55;;;14.38;;
28605;SDS011;46498;49.968;7.754;2022-12-07T04:52:12;32.88;;;15.65;;
28605;SDS011;46498;49.968;7.754;2022-12-07T04:57:13;31.33;;;14.35;;
28605;SDS011;46498;49.968;7.754;2022-12-07T05:02:13;29.23;;;13.73;;
28605;SDS011;46498;49.968;7.754;2022-12-07T05:07:14;34.17;;;14.40;;
28605;SDS011;46498;49.968;7.754;2022-12-07T05:12:15;31.08;;;14.18;;
28605;SDS011;46498;49.968;7.754;2022-12-07T05:17:16;30.67;;;12.93;;
28605;SDS011;46498;49.968;7.754;2022-12-07T05:22:17;27.80;;;13.60;;
28605;SDS011;46498;49.968;7.754;2022-12-07T05:27:18;31.30;;;13.80;;
28605;SDS011;46498;49.968;7.754;2022-12-07T05:32:18;30.30;;;14.13;;
28605;SDS011;46498;49.968;7.754;2022-12-07T05:37:19;34.90;;;12.93;;
28605;SDS011;46498;49.968;7.754;2022-12-07T05:42:20;30.55;;;13.05;;
28605;SDS011;46498;49.968;7.754;2022-12-07T05:47:21;34.95;;;14.63;;
28605;SDS011;46498;49.968;7.754;2022-12-07T05:52:22;26.92;;;13.05;;
28605;SDS011;46498;49.968;7.754;2022-12-07T05:57:23;29.95;;;13.35;;
28605;SDS011;46498;49.968;7.754;2022-12-07T06:02:24;37.28;;;15.73;;
28605;SDS011;46498;49.968;7.754;2022-12-07T06:07:25;31.08;;;13.95;;
28605;SDS011;46498;49.968;7.754;2022-12-07T06:12:26;36.47;;;16.12;;
28605;SDS011;46498;49.968;7.754;2022-12-07T06:17:36;37.65;;;18.05;;
28605;SDS011;46498;49.968;7.754;2022-12-07T06:22:37;43.08;;;17.20;;
28605;SDS011;46498;49.968;7.754;2022-12-07T06:27:38;32.60;;;15.23;;
28605;SDS011;46498;49.968;7.754;2022-12-07T06:32:38;29.77;;;14.20;;
28605;SDS011;46498;49.968;7.754;2022-12-07T06:37:39;37.28;;;17.02;;
28605;SDS011;46498;49.968;7.754;2022-12-07T06:42:40;36.80;;;16.95;;
28605;SDS011;46498;49.968;7.754;2022-12-07T06:47:41;33.88;;;15.38;;
28605;SDS011;46498;49.968;7.754;2022-12-07T06:52:44;40.55;;;16.70;;
28605;SDS011;46498;49.968;7.754;2022-12-07T06:57:45;42.30;;;18.17;;
28605;SDS011;46498;49.968;7.754;2022-12-07T07:02:45;39.85;;;17.08;;
28605;SDS011;46498;49.968;7.754;2022-12-07T07:07:46;39.70;;;17.33;;
28605;SDS011;46498;49.968;7.754;2022-12-07T07:13:22;41.28;;;18.05;;
28605;SDS011;46498;49.968;7.754;2022-12-07T07:18:23;41.42;;;17.65;;
28605;SDS011;46498;49.968;7.754;2022-12-07T07:23:24;41.72;;;18.05;;
28605;SDS011;46498;49.968;7.754;2022-12-07T07:28:25;38.38;;;16.90;;
28605;SDS011;46498;49.968;7.754;2022-12-07T07:33:25;39.92;;;16.70;;
28605;SDS011;46498;49.968;7.754;2022-12-07T07:38:26;42.25;;;17.50;;
28605;SDS011;46498;49.968;7.754;2022-12-07T07:43:27;39.13;;;17.30;;
28605;SDS011;46498;49.968;7.754;2022-12-07T07:48:28;38.92;;;16.42;;
28605;SDS011;46498;49.968;7.754;2022-12-07T07:53:29;31.60;;;14.35;;
28605;SDS011;46498;49.968;7.754;2022-12-07T07:58:29;31.77;;;14.00;;
28605;SDS011;46498;49.968;7.754;2022-12-07T08:03:30;30.73;;;12.93;;
28605;SDS011;46498;49.968;7.754;2022-12-07T08:08:32;29.55;;;13.00;;
28605;SDS011;46498;49.968;7.754;2022-12-07T08:13:32;34.63;;;14.25;;
28605;SDS011;46498;49.968;7.754;2022-12-07T08:18:40;28.15;;;13.85;;
28605;SDS011;46498;49.968;7.754;2022-12-07T08:23:41;25.45;;;12.32;;
28605;SDS011;46498;49.968;7.754;2022-12-07T08:28:43;29.30;;;12.85;;
28605;SDS011;46498;49.968;7.754;2022-12-07T08:33:46;30.77;;;13.27;;
28605;SDS011;46498;49.968;7.754;2022-12-07T08:38:47;25.92;;;11.85;;
28605;SDS011;46498;49.968;7.754;2022-12-07T08:44:30;21.80;;;9.90;;
28605;SDS011;46498;49.968;7.754;2022-12-07T08:49:36;27.17;;;11.52;;
28605;SDS011;46498;49.968;7.754;2022-12-07T08:54:40;25.25;;;9.25;;
28605;SDS011;46498;49.968;7.754;2022-12-07T08:59:42;21.17;;;9.27;;
28605;SDS011;46498;49.968;7.754;2022-12-07T09:04:43;35.60;;;14.55;;
28605;SDS011;46498;49.968;7.754;2022-12-07T09:09:44;22.42;;;8.20;;
28605;SDS011;46498;49.968;7.754;2022-12-07T09:14:45;29.35;;;9.68;;
28605;SDS011;46498;49.968;7.754;2022-12-07T09:19:45;44.35;;;12.25;;
28605;SDS011;46498;49.968;7.754;2022-12-07T09:24:46;31.48;;;10.95;;
28605;SDS011;46498;49.968;7.754;2022-12-07T09:29:47;27.98;;;9.30;;
28605;SDS011;46498;49.968;7.754;2022-12-07T09:34:48;80.72;;;20.25;;
28605;SDS011;46498;49.968;7.754;2022-12-07T09:39:49;31.02;;;9.77;;
28605;SDS011;46498;49.968;7.754;2022-12-07T09:44:51;49.63;;;12.48;;
28605;SDS011;46498;49.968;7.754;2022-12-07T09:49:52;13.55;;;5.50;;
28605;SDS011;46498;49.968;7.754;2022-12-07T09:54:55;12.43;;;6.35;;
28605;SDS011;46498;49.968;7.754;2022-12-07T09:59:59;16.50;;;5.80;;
28605;SDS011;46498;49.968;7.754;2022-12-07T10:05:06;23.55;;;9.23;;
28605;SDS011;46498;49.968;7.754;2022-12-07T10:10:14;25.70;;;8.82;;
28605;SDS011;46498;49.968;7.754;2022-12-07T10:15:18;13.57;;;5.55;;
28605;SDS011;46498;49.968;7.754;2022-12-07T10:20:26;12.65;;;5.22;;
28605;SDS011;46498;49.968;7.754;2022-12-07T10:25:29;12.73;;;4.60;;
28605;SDS011;46498;49.968;7.754;2022-12-07T10:36:19;16.25;;;5.80;;
28605;SDS011;46498;49.968;7.754;2022-12-07T10:41:23;16.12;;;4.57;;
28605;SDS011;46498;49.968;7.754;2022-12-07T10:46:35;22.02;;;8.10;;
28605;SDS011;46498;49.968;7.754;2022-12-07T10:54:18;12.93;;;4.75;;
28605;SDS011;46498;49.968;7.754;2022-12-07T11:09:04;18.02;;;6.60;;
28605;SDS011;46498;49.968;7.754;2022-12-07T11:15:15;16.58;;;7.53;;
28605;SDS011;46498;49.968;7.754;2022-12-07T11:27:17;13.80;;;6.03;;
28605;SDS011;46498;49.968;7.754;2022-12-07T11:33:20;11.63;;;4.53;;
28605;SDS011;46498;49.968;7.754;2022-12-07T11:38:37;10.57;;;4.15;;
28605;SDS011;46498;49.968;7.754;2022-12-07T11:43:55;6.95;;;3.40;;
28605;SDS011;46498;49.968;7.754;2022-12-07T11:49:18;18.98;;;4.95;;
28605;SDS011;46498;49.968;7.754;2022-12-07T11:54:29;20.00;;;8.52;;
28605;SDS011;46498;49.968;7.754;2022-12-07T11:59:42;21.87;;;9.52;;
28605;SDS011;46498;49.968;7.754;2022-12-07T12:04:58;14.77;;;7.57;;
28605;SDS011;46498;49.968;7.754;2022-12-07T12:10:36;10.90;;;4.20;;
28605;SDS011;46498;49.968;7.754;2022-12-07T12:16:10;9.93;;;4.28;;
28605;SDS011;46498;49.968;7.754;2022-12-07T12:21:25;8.75;;;4.00;;
28605;SDS011;46498;49.968;7.754;2022-12-07T12:26:29;10.95;;;3.72;;
28605;SDS011;46498;49.968;7.754;2022-12-07T12:31:40;5.47;;;2.47;;
28605;SDS011;46498;49.968;7.754;2022-12-07T12:36:44;6.40;;;2.60;;
28605;SDS011;46498;49.968;7.754;2022-12-07T12:41:53;7.55;;;3.25;;
28605;SDS011;46498;49.968;7.754;2022-12-07T12:58:37;5.72;;;3.33;;
28605;SDS011;46498;49.968;7.754;2022-12-07T13:03:39;9.30;;;3.67;;
28605;SDS011;46498;49.968;7.754;2022-12-07T13:08:55;8.35;;;3.00;;
28605;SDS011;46498;49.968;7.754;2022-12-07T13:26:24;7.90;;;3.15;;
28605;SDS011;46498;49.968;7.754;2022-12-07T13:31:52;9.65;;;2.72;;
28605;SDS011;46498;49.968;7.754;2022-12-07T13:36:56;8.10;;;3.25;;
28605;SDS011;46498;49.968;7.754;2022-12-07T13:41:58;7.05;;;2.78;;
28605;SDS011;46498;49.968;7.754;2022-12-07T13:47:12;13.50;;;3.28;;
28605;SDS011;46498;49.968;7.754;2022-12-07T13:52:21;8.75;;;3.35;;
28605;SDS011;46498;49.968;7.754;2022-12-07T13:57:24;13.85;;;2.80;;
28605;SDS011;46498;49.968;7.754;2022-12-07T14:02:28;5.57;;;2.42;;
28605;SDS011;46498;49.968;7.754;2022-12-07T14:07:35;7.43;;;2.87;;
28605;SDS011;46498;49.968;7.754;2022-12-07T14:12:36;10.25;;;3.72;;
28605;SDS011;46498;49.968;7.754;2022-12-07T14:17:38;10.15;;;3.00;;
28605;SDS011;46498;49.968;7.754;2022-12-07T14:22:54;6.65;;;2.80;;
28605;SDS011;46498;49.968;7.754;2022-12-07T14:27:57;12.95;;;5.10;;
28605;SDS011;46498;49.968;7.754;2022-12-07T14:33:00;18.23;;;7.80;;
28605;SDS011;46498;49.968;7.754;2022-12-07T14:38:03;11.65;;;3.50;;
28605;SDS011;46498;49.968;7.754;2022-12-07T14:43:14;6.87;;;2.92;;
28605;SDS011;46498;49.968;7.754;2022-12-07T14:48:16;8.00;;;3.28;;
28605;SDS011;46498;49.968;7.754;2022-12-07T14:53:48;13.48;;;4.93;;
28605;SDS011;46498;49.968;7.754;2022-12-07T14:58:57;12.13;;;4.00;;
28605;SDS011;46498;49.968;7.754;2022-12-07T15:03:59;8.98;;;3.42;;
28605;SDS011;46498;49.968;7.754;2022-12-07T15:09:01;10.32;;;3.65;;
28605;SDS011;46498;49.968;7.754;2022-12-07T15:14:02;10.57;;;5.22;;
28605;SDS011;46498;49.968;7.754;2022-12-07T15:19:14;11.10;;;4.32;;
28605;SDS011;46498;49.968;7.754;2022-12-07T15:24:30;9.98;;;5.15;;
28605;SDS011;46498;49.968;7.754;2022-12-07T15:29:30;10.38;;;5.00;;
28605;SDS011;46498;49.968;7.754;2022-12-07T15:34:31;14.35;;;5.22;;
28605;SDS011;46498;49.968;7.754;2022-12-07T15:39:40;16.80;;;7.05;;
28605;SDS011;46498;49.968;7.754;2022-12-07T15:44:41;17.60;;;8.68;;
28605;SDS011;46498;49.968;7.754;2022-12-07T15:50:02;11.60;;;5.68;;
28605;SDS011;46498;49.968;7.754;2022-12-07T15:55:05;11.85;;;6.37;;
28605;SDS011;46498;49.968;7.754;2022-12-07T16:00:08;12.10;;;6.55;;
28605;SDS011;46498;49.968;7.754;2022-12-07T16:05:10;11.25;;;5.70;;
28605;SDS011;46498;49.968;7.754;2022-12-07T16:10:11;12.93;;;5.72;;
28605;SDS011;46498;49.968;7.754;2022-12-07T16:15:12;16.83;;;6.55;;
28605;SDS011;46498;49.968;7.754;2022-12-07T16:20:13;12.20;;;6.12;;
28605;SDS011;46498;49.968;7.754;2022-12-07T16:25:14;10.68;;;5.57;;
28605;SDS011;46498;49.968;7.754;2022-12-07T16:30:15;108.05;;;35.13;;
28605;SDS011;46498;49.968;7.754;2022-12-07T16:35:19;90.35;;;29.35;;
28605;SDS011;46498;49.968;7.754;2022-12-07T16:40:20;64.60;;;19.40;;
28605;SDS011;46498;49.968;7.754;2022-12-07T16:45:20;23.95;;;9.00;;
28605;SDS011;46498;49.968;7.754;2022-12-07T16:50:21;12.20;;;5.85;;
28605;SDS011;46498;49.968;7.754;2022-12-07T16:55:22;12.20;;;6.18;;
28605;SDS011;46498;49.968;7.754;2022-12-07T17:00:23;11.90;;;5.72;;
28605;SDS011;46498;49.968;7.754;2022-12-07T17:05:25;46.92;;;21.05;;
28605;SDS011;46498;49.968;7.754;2022-12-07T17:10:28;63.25;;;30.23;;
28605;SDS011;46498;49.968;7.754;2022-12-07T17:15:29;126.20;;;50.90;;
28605;SDS011;46498;49.968;7.754;2022-12-07T17:20:29;31.37;;;14.32;;
28605;SDS011;46498;49.968;7.754;2022-12-07T17:25:30;22.58;;;8.77;;
28605;SDS011;46498;49.968;7.754;2022-12-07T17:30:31;26.90;;;9.15;;
28605;SDS011;46498;49.968;7.754;2022-12-07T17:35:32;13.48;;;5.40;;
28605;SDS011;46498;49.968;7.754;2022-12-07T17:40:33;19.45;;;8.05;;
28605;SDS011;46498;49.968;7.754;2022-12-07T17:45:35;19.35;;;8.25;;
28605;SDS011;46498;49.968;7.754;2022-12-07T17:50:38;18.25;;;7.93;;
28605;SDS011;46498;49.968;7.754;2022-12-07T17:55:58;22.15;;;9.13;;
28605;SDS011;46498;49.968;7.754;2022-12-07T18:01:29;13.57;;;5.75;;
28605;SDS011;46498;49.968;7.754;2022-12-07T18:06:35;14.25;;;5.22;;
28605;SDS011;46498;49.968;7.754;2022-12-07T18:11:37;70.73;;;32.73;;
28605;SDS011;46498;49.968;7.754;2022-12-07T18:16:38;25.10;;;9.32;;
28605;SDS011;46498;49.968;7.754;2022-12-07T18:21:39;16.70;;;5.72;;
28605;SDS011;46498;49.968;7.754;2022-12-07T18:26:41;12.93;;;5.25;;
28605;SDS011;46498;49.968;7.754;2022-12-07T18:31:43;11.57;;;4.53;;
28605;SDS011;46498;49.968;7.754;2022-12-07T18:36:47;15.27;;;4.78;;
28605;SDS011;46498;49.968;7.754;2022-12-07T18:41:52;22.33;;;7.25;;
28605;SDS011;46498;49.968;7.754;2022-12-07T18:46:53;34.45;;;10.63;;
28605;SDS011;46498;49.968;7.754;2022-12-07T18:51:54;22.90;;;8.70;;
28605;SDS011;46498;49.968;7.754;2022-12-07T18:56:55;28.98;;;15.45;;
28605;SDS011;46498;49.968;7.754;2022-12-07T19:01:56;18.48;;;6.97;;
28605;SDS011;46498;49.968;7.754;2022-12-07T19:06:57;20.65;;;6.95;;
28605;SDS011;46498;49.968;7.754;2022-12-07T19:11:58;21.77;;;11.05;;
28605;SDS011;46498;49.968;7.754;2022-12-07T19:17:10;15.02;;;7.62;;
28605;SDS011;46498;49.968;7.754;2022-12-07T19:22:13;22.02;;;10.73;;
28605;SDS011;46498;49.968;7.754;2022-12-07T19:27:18;25.30;;;9.77;;
28605;SDS011;46498;49.968;7.754;2022-12-07T19:32:19;63.30;;;26.30;;
28605;SDS011;46498;49.968;7.754;2022-12-07T19:37:20;17.62;;;7.43;;
28605;SDS011;46498;49.968;7.754;2022-12-07T19:42:21;30.58;;;11.00;;
28605;SDS011;46498;49.968;7.754;2022-12-07T19:47:22;38.65;;;11.57;;
28605;SDS011;46498;49.968;7.754;2022-12-07T19:52:23;35.83;;;12.93;;
28605;SDS011;46498;49.968;7.754;2022-12-07T19:57:26;53.07;;;13.93;;
28605;SDS011;46498;49.968;7.754;2022-12-07T20:02:26;47.90;;;12.85;;
28605;SDS011;46498;49.968;7.754;2022-12-07T20:07:27;49.10;;;13.82;;
28605;SDS011;46498;49.968;7.754;2022-12-07T20:12:28;47.70;;;16.75;;
28605;SDS011;46498;49.968;7.754;2022-12-07T20:17:47;35.42;;;11.55;;
28605;SDS011;46498;49.968;7.754;2022-12-07T20:22:48;28.83;;;13.00;;
28605;SDS011;46498;49.968;7.754;2022-12-07T20:27:49;34.58;;;12.27;;
28605;SDS011;46498;49.968;7.754;2022-12-07T20:32:50;32.90;;;13.40;;
28605;SDS011;46498;49.968;7.754;2022-12-07T20:37:51;35.40;;;13.95;;
28605;SDS011;46498;49.968;7.754;2022-12-07T20:42:51;40.08;;;15.68;;
28605;SDS011;46498;49.968;7.754;2022-12-07T20:47:52;30.48;;;11.88;;
28605;SDS011;46498;49.968;7.754;2022-12-07T20:52:53;33.22;;;13.30;;
28605;SDS011;46498;49.968;7.754;2022-12-07T20:58:01;23.38;;;9.57;;
28605;SDS011;46498;49.968;7.754;2022-12-07T21:03:03;31.77;;;12.18;;
28605;SDS011;46498;49.968;7.754;2022-12-07T21:08:04;43.42;;;17.05;;
28605;SDS011;46498;49.968;7.754;2022-12-07T21:13:05;35.58;;;12.90;;
28605;SDS011;46498;49.968;7.754;2022-12-07T21:18:06;25.90;;;9.80;;
28605;SDS011;46498;49.968;7.754;2022-12-07T21:23:08;28.58;;;12.95;;
28605;SDS011;46498;49.968;7.754;2022-12-07T21:28:08;26.12;;;10.43;;
28605;SDS011;46498;49.968;7.754;2022-12-07T21:33:09;23.27;;;9.35;;
28605;SDS011;46498;49.968;7.754;2022-12-07T21:38:10;19.45;;;8.85;;
28605;SDS011;46498;49.968;7.754;2022-12-07T21:43:11;20.17;;;9.05;;
28605;SDS011;46498;49.968;7.754;2022-12-07T21:48:12;20.10;;;8.85;;
28605;SDS011;46498;49.968;7.754;2022-12-07T21:53:13;21.73;;;9.27;;
28605;SDS011;46498;49.968;7.754;2022-12-07T21:58:13;18.60;;;9.15;;
28605;SDS011;46498;49.968;7.754;2022-12-07T22:03:14;17.12;;;7.97;;
28605;SDS011;46498;49.968;7.754;2022-12-07T22:08:15;19.02;;;8.25;;
28605;SDS011;46498;49.968;7.754;2022-12-07T22:13:16;18.55;;;7.78;;
28605;SDS011;46498;49.968;7.754;2022-12-07T22:18:17;17.87;;;8.32;;
28605;SDS011;46498;49.968;7.754;2022-12-07T22:23:18;20.55;;;8.85;;
28605;SDS011;46498;49.968;7.754;2022-12-07T22:28:18;21.85;;;8.30;;
28605;SDS011;46498;49.968;7.754;2022-12-07T22:33:19;23.73;;;9.80;;
28605;SDS011;46498;49.968;7.754;2022-12-07T22:38:20;40.97;;;14.23;;
28605;SDS011;46498;49.968;7.754;2022-12-07T22:43:21;25.55;;;10.30;;
28605;SDS011;46498;49.968;7.754;2022-12-07T22:48:23;20.85;;;9.57;;
28605;SDS011;46498;49.968;7.754;2022-12-07T22:53:25;19.55;;;8.52;;
28605;SDS011;46498;49.968;7.754;2022-12-07T22:58:26;21.52;;;9.93;;
28605;SDS011;46498;49.968;7.754;2022-12-07T23:03:27;25.58;;;10.25;;
28605;SDS011;46498;49.968;7.754;2022-12-07T23:08:28;29.98;;;10.18;;
28605;SDS011;46498;49.968;7.754;2022-12-07T23:13:30;25.50;;;10.23;;
28605;SDS011;46498;49.968;7.754;2022-12-07T23:18:31;25.90;;;10.02;;
28605;SDS011;46498;49.968;7.754;2022-12-07T23:23:32;27.05;;;10.60;;
28605;SDS011;46498;49.968;7.754;2022-12-07T23:28:33;21.95;;;10.15;;
28605;SDS011;46498;49.968;7.754;2022-12-07T23:33:35;22.17;;;10.35;;
28605;SDS011;46498;49.968;7.754;2022-12-07T23:38:36;24.60;;;10.45;;
28605;SDS011;46498;49.968;7.754;2022-12-07T23:43:38;23.02;;;9.70;;
28605;SDS011;46498;49.968;7.754;2022-12-07T23:48:40;24.65;;;11.82;;
28605;SDS011;46498;49.968;7.754;2022-12-07T23:53:43;26.37;;;12.20;;
28605;SDS011;46498;49.968;7.754;2022-12-07T23:58:46;34.38;;;12.75;;
